createdAt,value
2022-10-04T00:01:33.373Z,18.00
2022-10-04T00:04:32.539Z,10.90
2022-10-04T00:07:06.453Z,9.70
2022-10-04T00:09:43.220Z,9.00
2022-10-04T00:12:22.753Z,4.40
2022-10-04T00:14:53.694Z,5.80
2022-10-04T00:19:53.522Z,6.10
2022-10-04T00:22:23.129Z,8.40
2022-10-04T00:25:20.342Z,4.70
2022-10-04T00:28:15.828Z,5.20
2022-10-04T00:30:43.837Z,6.60
2022-10-04T00:33:12.042Z,8.00
2022-10-04T00:35:40.112Z,5.00
2022-10-04T00:38:07.981Z,5.00
2022-10-04T00:41:04.414Z,3.10
2022-10-04T00:43:43.545Z,4.30
2022-10-04T00:46:23.415Z,4.90
2022-10-04T00:49:06.277Z,7.20
2022-10-04T00:51:46.790Z,6.60
2022-10-04T00:54:26.433Z,7.10
2022-10-04T00:57:11.500Z,4.20
2022-10-04T00:59:46.873Z,4.40
2022-10-04T01:02:17.911Z,4.10
2022-10-04T01:05:07.132Z,3.40
2022-10-04T01:07:48.001Z,3.40
2022-10-04T01:10:21.499Z,3.20
2022-10-04T01:13:24.898Z,5.80
2022-10-04T01:16:02.078Z,6.10
2022-10-04T01:18:33.335Z,9.90
2022-10-04T01:21:19.815Z,6.00
2022-10-04T01:24:16.058Z,6.70
2022-10-04T01:26:45.672Z,4.70
2022-10-04T01:29:26.991Z,6.30
2022-10-04T01:31:58.521Z,6.50
2022-10-04T01:34:29.378Z,9.20
2022-10-04T01:37:00.451Z,5.80
2022-10-04T01:39:29.375Z,6.70
2022-10-04T01:42:20.788Z,4.60
2022-10-04T01:44:58.232Z,6.30
2022-10-04T01:47:43.786Z,4.50
2022-10-04T01:50:23.810Z,6.40
2022-10-04T01:52:56.745Z,6.70
2022-10-04T01:55:29.486Z,8.70
2022-10-04T01:58:11.822Z,4.50
2022-10-04T02:00:46.446Z,4.30
2022-10-04T02:03:24.990Z,5.60
2022-10-04T02:05:59.043Z,4.50
2022-10-04T02:08:33.146Z,4.70
2022-10-04T02:11:03.348Z,23.10
2022-10-04T02:13:41.663Z,24.00
2022-10-04T02:16:12.178Z,16.30
2022-10-04T02:18:43.742Z,7.70
2022-10-04T02:21:14.630Z,9.30
2022-10-04T02:23:44.066Z,12.10
2022-10-04T02:26:12.580Z,14.90
2022-10-04T02:28:41.270Z,3.70
2022-10-04T02:31:28.654Z,10.60
2022-10-04T02:33:59.326Z,5.60
2022-10-04T02:36:29.759Z,7.60
2022-10-04T02:39:08.877Z,6.10
2022-10-04T02:42:04.192Z,6.30
2022-10-04T02:45:00.215Z,5.10
2022-10-04T02:47:37.251Z,3.70
2022-10-04T02:50:16.940Z,5.00
2022-10-04T02:52:48.716Z,3.50
2022-10-04T02:55:28.026Z,6.00
2022-10-04T02:57:58.414Z,5.10
2022-10-04T03:00:29.341Z,8.00
2022-10-04T03:03:21.840Z,5.80
2022-10-04T03:06:04.659Z,4.00
2022-10-04T03:08:56.138Z,4.30
2022-10-04T03:11:30.161Z,4.40
2022-10-04T03:14:00.202Z,4.10
2022-10-04T03:16:35.544Z,3.30
2022-10-04T03:19:04.514Z,3.50
2022-10-04T03:21:33.732Z,8.10
2022-10-04T03:24:04.214Z,5.10
2022-10-04T03:26:48.620Z,5.30
2022-10-04T03:29:19.304Z,5.90
2022-10-04T03:31:49.506Z,4.40
2022-10-04T03:34:32.355Z,2.80
2022-10-04T03:37:01.888Z,4.30
2022-10-04T03:39:40.301Z,5.40
2022-10-04T03:42:16.460Z,4.70
2022-10-04T03:44:46.587Z,6.60
2022-10-04T03:47:19.900Z,5.40
2022-10-04T03:49:51.033Z,8.00
2022-10-04T03:52:29.592Z,5.90
2022-10-04T03:55:01.672Z,7.00
2022-10-04T03:57:30.792Z,8.80
2022-10-04T04:00:00.083Z,6.30
2022-10-04T04:02:54.035Z,7.10
2022-10-04T04:05:44.875Z,7.40
2022-10-04T04:08:14.891Z,5.40
2022-10-04T04:10:48.876Z,6.40
2022-10-04T04:13:19.749Z,6.80
2022-10-04T04:15:48.524Z,5.70
2022-10-04T04:18:22.998Z,7.70
2022-10-04T04:20:53.895Z,5.50
2022-10-04T04:26:42.564Z,5.40
2022-10-04T04:29:16.260Z,6.50
2022-10-04T04:31:52.155Z,5.50
2022-10-04T04:34:21.415Z,7.10
2022-10-04T04:36:49.283Z,9.60
2022-10-04T04:39:34.716Z,12.10
2022-10-04T04:42:29.650Z,16.90
2022-10-04T04:45:26.992Z,5.20
2022-10-04T04:48:00.213Z,10.00
2022-10-04T04:50:37.597Z,21.00
2022-10-04T04:53:09.864Z,17.30
2022-10-04T04:56:02.307Z,12.50
2022-10-04T04:58:35.450Z,10.30
2022-10-04T05:01:26.549Z,6.80
2022-10-04T05:04:05.029Z,5.20
2022-10-04T05:06:34.732Z,5.30
2022-10-04T05:09:05.066Z,5.60
2022-10-04T05:11:38.895Z,5.70
2022-10-04T05:14:11.136Z,4.70
2022-10-04T05:16:48.778Z,5.70
2022-10-04T05:19:26.019Z,6.30
2022-10-04T05:21:56.754Z,13.40
2022-10-04T05:24:40.789Z,8.60
2022-10-04T05:27:19.923Z,4.60
2022-10-04T05:30:07.031Z,7.60
2022-10-04T05:32:48.728Z,7.00
2022-10-04T05:35:21.899Z,8.20
2022-10-04T05:38:09.240Z,10.20
2022-10-04T05:40:46.095Z,6.70
2022-10-04T05:43:31.941Z,6.00
2022-10-04T05:46:21.717Z,9.50
2022-10-04T05:48:54.690Z,6.90
2022-10-04T05:51:27.888Z,8.00
2022-10-04T05:54:00.442Z,12.40
2022-10-04T05:56:41.512Z,9.00
2022-10-04T05:59:38.050Z,6.30
2022-10-04T06:02:17.998Z,6.20
2022-10-04T06:05:08.456Z,5.20
2022-10-04T06:08:08.431Z,8.20
2022-10-04T06:10:57.689Z,8.90
2022-10-04T06:13:52.565Z,9.20
2022-10-04T06:16:28.771Z,7.80
2022-10-04T06:19:32.145Z,7.80
2022-10-04T06:22:20.699Z,6.20
2022-10-04T06:25:05.248Z,6.00
2022-10-04T06:27:45.406Z,6.90
2022-10-04T06:30:16.261Z,7.80
2022-10-04T06:32:56.293Z,7.10
2022-10-04T06:35:51.360Z,9.20
2022-10-04T06:38:44.643Z,5.50
2022-10-04T06:41:34.340Z,8.30
2022-10-04T06:44:31.493Z,6.60
2022-10-04T06:47:05.416Z,7.60
2022-10-04T06:49:50.408Z,5.40
2022-10-04T06:52:49.465Z,5.50
2022-10-04T06:55:35.462Z,5.80
2022-10-04T06:58:13.048Z,8.80
2022-10-04T07:01:09.063Z,8.60
2022-10-04T07:03:51.335Z,6.50
2022-10-04T07:06:47.615Z,11.30
2022-10-04T07:09:22.233Z,10.80
2022-10-04T07:11:58.605Z,7.20
2022-10-04T07:14:35.760Z,7.80
2022-10-04T07:17:12.669Z,8.00
2022-10-04T07:19:46.571Z,9.30
2022-10-04T07:22:40.118Z,10.40
2022-10-04T07:25:30.776Z,7.40
2022-10-04T07:28:29.389Z,8.50
2022-10-04T07:31:10.336Z,12.30
2022-10-04T07:36:22.894Z,34.80
2022-10-04T07:38:56.099Z,11.90
2022-10-04T07:41:35.349Z,12.00
2022-10-04T07:44:12.224Z,11.20
2022-10-04T07:46:48.311Z,9.50
2022-10-04T07:49:19.309Z,7.20
2022-10-04T07:52:05.517Z,9.80
2022-10-04T07:54:42.599Z,9.90
2022-10-04T07:57:59.212Z,12.60
2022-10-04T08:00:54.109Z,8.60
2022-10-04T08:03:41.026Z,8.40
2022-10-04T08:06:12.523Z,6.60
2022-10-04T08:09:18.350Z,7.70
2022-10-04T08:12:23.466Z,7.10
2022-10-04T08:15:15.092Z,9.80
2022-10-04T08:17:51.454Z,6.00
2022-10-04T08:20:37.246Z,5.80
2022-10-04T08:23:20.775Z,7.00
2022-10-04T08:26:02.977Z,7.60
2022-10-04T08:28:55.483Z,6.30
2022-10-04T08:31:35.385Z,6.40
2022-10-04T08:34:31.213Z,5.80
2022-10-04T08:37:11.927Z,7.00
2022-10-04T08:40:24.150Z,5.90
2022-10-04T08:43:20.396Z,7.80
2022-10-04T08:46:26.630Z,5.50
2022-10-04T08:49:16.653Z,9.50
2022-10-04T08:52:22.504Z,7.10
2022-10-04T08:55:02.132Z,10.60
2022-10-04T08:58:07.498Z,6.30
2022-10-04T09:00:48.969Z,5.10
2022-10-04T09:03:28.617Z,7.50
2022-10-04T09:06:08.568Z,5.10
2022-10-04T09:09:35.011Z,6.60
2022-10-04T09:12:32.114Z,8.80
2022-10-04T09:15:22.556Z,7.50
2022-10-04T09:18:30.499Z,9.60
2022-10-04T09:21:28.002Z,4.40
2022-10-04T09:24:21.265Z,6.10
2022-10-04T09:27:01.636Z,4.20
2022-10-04T09:29:50.521Z,6.90
2022-10-04T09:32:21.254Z,5.20
2022-10-04T09:35:19.712Z,5.00
2022-10-04T09:37:59.560Z,5.80
2022-10-04T09:40:36.512Z,4.00
2022-10-04T09:43:07.550Z,4.40
2022-10-04T09:46:08.249Z,9.20
2022-10-04T09:48:44.278Z,6.20
2022-10-04T09:51:25.443Z,7.50
2022-10-04T09:54:12.059Z,5.40
2022-10-04T09:56:52.008Z,5.00
2022-10-04T09:59:22.136Z,5.00
2022-10-04T10:02:28.335Z,4.70
2022-10-04T10:05:25.135Z,7.20
2022-10-04T10:08:11.228Z,6.00
2022-10-04T10:11:21.491Z,5.50
2022-10-04T10:14:40.019Z,5.10
2022-10-04T10:17:10.958Z,3.00
2022-10-04T10:19:41.816Z,7.40
2022-10-04T10:25:31.651Z,12.50
2022-10-04T10:28:30.577Z,7.80
2022-10-04T10:31:23.360Z,3.40
2022-10-04T10:34:29.015Z,5.00
2022-10-04T10:37:24.737Z,6.30
2022-10-04T10:40:12.793Z,6.00
2022-10-04T10:43:42.203Z,10.60
2022-10-04T10:46:35.126Z,4.00
2022-10-04T10:49:08.836Z,5.10
2022-10-04T10:51:51.689Z,4.20
2022-10-04T10:54:45.191Z,7.00
2022-10-04T10:57:34.180Z,5.80
2022-10-04T11:00:19.354Z,5.10
2022-10-04T11:03:26.402Z,6.30
2022-10-04T11:06:16.732Z,5.50
2022-10-04T11:09:12.247Z,5.70
2022-10-04T11:12:17.693Z,5.80
2022-10-04T11:15:23.472Z,5.60
2022-10-04T11:18:07.406Z,7.00
2022-10-04T11:20:59.412Z,7.70
2022-10-04T11:23:54.389Z,7.30
2022-10-04T11:26:57.310Z,6.30
2022-10-04T11:29:33.630Z,6.80
2022-10-04T11:32:01.647Z,6.00
2022-10-04T11:34:51.017Z,4.00
2022-10-04T11:37:34.248Z,4.50
2022-10-04T11:40:31.982Z,4.90
2022-10-04T11:43:18.509Z,5.10
2022-10-04T11:46:12.637Z,12.00
2022-10-04T11:48:53.874Z,3.90
2022-10-04T11:51:47.943Z,2.20
2022-10-04T11:54:37.739Z,6.40
2022-10-04T11:57:47.176Z,6.30
2022-10-04T12:00:21.070Z,5.40
2022-10-04T12:03:29.319Z,5.20
2022-10-04T12:06:23.882Z,3.40
2022-10-04T12:09:05.755Z,4.20
2022-10-04T12:12:16.245Z,6.70
2022-10-04T12:15:08.686Z,11.80
2022-10-04T12:17:57.852Z,3.70
2022-10-04T12:20:40.950Z,4.10
2022-10-04T12:23:31.178Z,6.70
2022-10-04T12:26:45.906Z,9.60
2022-10-04T12:29:29.159Z,4.60
2022-10-04T12:32:24.748Z,7.00
2022-10-04T12:35:19.623Z,3.10
2022-10-04T12:38:02.580Z,4.40
2022-10-04T12:40:48.396Z,3.70
2022-10-04T12:43:33.297Z,3.80
2022-10-04T12:46:13.648Z,5.70
2022-10-04T12:49:10.343Z,3.70
2022-10-04T12:51:58.813Z,6.30
2022-10-04T12:54:35.317Z,4.50
2022-10-04T12:57:06.611Z,6.00
2022-10-04T12:59:46.818Z,6.40
2022-10-04T13:02:26.837Z,3.10
2022-10-04T13:05:02.514Z,4.40
2022-10-04T13:07:58.735Z,3.10
2022-10-04T13:10:59.534Z,5.00
2022-10-04T13:13:48.698Z,3.40
2022-10-04T13:19:50.453Z,4.60
2022-10-04T13:22:57.268Z,7.20
2022-10-04T13:25:47.373Z,3.80
2022-10-04T13:28:41.460Z,4.50
2022-10-04T13:31:34.955Z,8.00
2022-10-04T13:34:14.793Z,6.70
2022-10-04T13:36:52.073Z,4.20
2022-10-04T13:39:53.790Z,7.70
2022-10-04T13:42:51.557Z,11.50
2022-10-04T13:45:53.252Z,9.50
2022-10-04T13:48:31.016Z,5.00
2022-10-04T13:51:17.271Z,2.80
2022-10-04T13:54:36.274Z,2.70
2022-10-04T13:57:18.570Z,4.20
2022-10-04T13:59:59.915Z,3.70
2022-10-04T14:03:02.920Z,6.20
2022-10-04T14:05:49.862Z,3.90
2022-10-04T14:08:36.829Z,2.90
2022-10-04T14:11:23.992Z,4.10
2022-10-04T14:13:55.755Z,3.90
2022-10-04T14:16:39.011Z,6.40
2022-10-04T14:19:28.315Z,6.70
2022-10-04T14:22:41.779Z,9.70
2022-10-04T14:25:54.703Z,5.60
2022-10-04T14:29:00.047Z,7.50
2022-10-04T14:31:47.260Z,3.90
2022-10-04T14:34:39.095Z,4.50
2022-10-04T14:37:28.158Z,5.30
2022-10-04T14:40:07.940Z,6.80
2022-10-04T14:42:46.752Z,6.40
2022-10-04T14:45:24.656Z,8.00
2022-10-04T14:48:12.036Z,7.60
2022-10-04T14:51:03.059Z,6.20
2022-10-04T14:53:49.939Z,8.20
2022-10-04T14:56:59.096Z,13.20
2022-10-04T14:59:58.995Z,11.50
2022-10-04T15:02:33.342Z,10.90
2022-10-04T15:05:37.789Z,13.40
2022-10-04T15:08:20.993Z,12.50
2022-10-04T15:10:53.772Z,11.90
2022-10-04T15:13:36.704Z,10.20
2022-10-04T15:16:17.923Z,8.50
2022-10-04T15:19:03.849Z,11.40
2022-10-04T15:22:00.232Z,9.40
2022-10-04T15:24:44.631Z,9.90
2022-10-04T15:27:27.878Z,8.80
2022-10-04T15:30:20.321Z,11.80
2022-10-04T15:33:12.560Z,12.70
2022-10-04T15:35:58.965Z,8.90
2022-10-04T15:38:35.826Z,10.50
2022-10-04T15:41:22.336Z,8.40
2022-10-04T15:44:12.752Z,5.50
2022-10-04T15:47:09.077Z,17.70
2022-10-04T15:49:43.072Z,9.70
2022-10-04T15:52:21.495Z,7.50
2022-10-04T15:55:25.474Z,6.60
2022-10-04T15:58:15.971Z,10.00
2022-10-04T16:01:00.157Z,10.00
2022-10-04T16:03:41.435Z,13.70
2022-10-04T16:06:23.984Z,12.30
2022-10-04T16:09:14.056Z,13.00
2022-10-04T16:11:51.103Z,12.90
2022-10-04T16:14:37.300Z,10.00
2022-10-04T16:17:34.660Z,11.10
2022-10-04T16:20:20.938Z,9.80
2022-10-04T16:23:25.413Z,8.70
2022-10-04T16:26:05.559Z,10.80
2022-10-04T16:29:01.559Z,7.60
2022-10-04T16:31:50.489Z,12.60
2022-10-04T16:34:45.563Z,16.10
2022-10-04T16:37:39.602Z,36.40
2022-10-04T16:40:12.644Z,35.00
2022-10-04T16:42:55.422Z,31.30
2022-10-04T16:45:39.823Z,28.60
2022-10-04T16:48:23.524Z,24.70
2022-10-04T16:51:16.348Z,27.50
2022-10-04T16:54:05.211Z,30.80
2022-10-04T16:56:57.318Z,38.10
2022-10-04T16:59:37.039Z,39.00
2022-10-04T17:02:34.135Z,37.90
2022-10-04T17:05:22.850Z,28.70
2022-10-04T17:07:56.698Z,28.60
2022-10-04T17:10:48.995Z,45.20
2022-10-04T17:13:43.863Z,36.00
2022-10-04T17:16:16.653Z,26.90
2022-10-04T17:19:10.509Z,24.60
2022-10-04T17:21:48.863Z,25.60
2022-10-04T17:24:17.059Z,24.30
2022-10-04T17:27:00.771Z,25.60
2022-10-04T17:29:37.773Z,25.30
2022-10-04T17:32:17.473Z,17.60
2022-10-04T17:35:16.866Z,22.30
2022-10-04T17:38:07.912Z,18.70
2022-10-04T17:43:41.284Z,13.40
2022-10-04T17:46:21.885Z,11.60
2022-10-04T17:49:20.908Z,12.50
2022-10-04T17:52:14.702Z,13.00
2022-10-04T17:55:10.878Z,14.20
2022-10-04T17:57:45.319Z,11.10
2022-10-04T18:00:16.695Z,11.30
2022-10-04T18:03:02.342Z,14.90
2022-10-04T18:05:31.076Z,14.80
2022-10-04T18:08:04.677Z,15.60
2022-10-04T18:10:38.686Z,16.40
2022-10-04T18:13:19.351Z,17.20
2022-10-04T18:15:58.103Z,17.10
2022-10-04T18:18:30.919Z,19.90
2022-10-04T18:21:05.236Z,18.90
2022-10-04T18:23:54.094Z,17.90
2022-10-04T18:26:24.539Z,19.60
2022-10-04T18:28:54.253Z,21.30
2022-10-04T18:31:41.273Z,25.10
2022-10-04T18:34:18.102Z,23.50
2022-10-04T18:36:52.923Z,21.70
2022-10-04T18:39:24.377Z,22.80
2022-10-04T18:42:01.127Z,21.40
2022-10-04T18:44:44.488Z,14.60
2022-10-04T18:47:25.300Z,16.40
2022-10-04T18:49:54.706Z,15.30
2022-10-04T18:52:55.892Z,15.60
2022-10-04T18:55:41.682Z,17.10
2022-10-04T18:58:55.591Z,16.40
2022-10-04T19:01:42.593Z,18.20
2022-10-04T19:04:34.458Z,16.50
2022-10-04T19:07:29.250Z,17.60
2022-10-04T19:10:01.176Z,14.70
2022-10-04T19:12:36.486Z,13.60
2022-10-04T19:15:29.584Z,12.90
2022-10-04T19:18:48.451Z,19.80
2022-10-04T19:21:34.136Z,16.10
2022-10-04T19:24:31.181Z,16.60
2022-10-04T19:27:26.805Z,14.70
2022-10-04T19:30:19.883Z,18.70
2022-10-04T19:33:13.947Z,23.90
2022-10-04T19:35:57.738Z,17.10
2022-10-04T19:38:51.966Z,17.30
2022-10-04T19:41:32.324Z,19.40
2022-10-04T19:44:00.189Z,14.90
2022-10-04T19:46:43.671Z,13.70
2022-10-04T19:49:32.166Z,12.60
2022-10-04T19:52:29.112Z,13.40
2022-10-04T19:55:04.140Z,13.50
2022-10-04T19:57:38.178Z,12.00
2022-10-04T20:00:12.932Z,14.50
2022-10-04T20:02:48.137Z,15.70
2022-10-04T20:05:24.989Z,16.00
2022-10-04T20:08:05.469Z,13.90
2022-10-04T20:10:36.417Z,15.50
2022-10-04T20:15:35.013Z,14.40
2022-10-04T20:18:22.889Z,13.10
2022-10-04T20:20:53.738Z,15.60
2022-10-04T20:23:40.278Z,20.90
2022-10-04T20:26:53.650Z,17.00
2022-10-04T20:29:38.174Z,16.50
2022-10-04T20:32:37.065Z,18.90
2022-10-04T20:35:14.101Z,17.20
2022-10-04T20:37:46.635Z,13.50
2022-10-04T20:40:23.599Z,18.80
2022-10-04T20:43:14.808Z,15.20
2022-10-04T20:45:46.259Z,14.30
2022-10-04T20:48:20.517Z,16.10
2022-10-04T20:50:52.380Z,12.20
2022-10-04T20:53:23.358Z,17.50
2022-10-04T20:58:37.785Z,20.50
2022-10-04T21:01:31.295Z,18.20
2022-10-04T21:04:34.061Z,19.90
2022-10-04T21:09:37.397Z,17.60
2022-10-04T21:12:07.867Z,19.10
2022-10-04T21:14:37.851Z,18.50
2022-10-04T21:17:28.202Z,16.40
2022-10-04T21:19:56.318Z,13.40
2022-10-04T21:22:29.048Z,18.10
2022-10-04T21:25:01.929Z,14.20
2022-10-04T21:27:36.803Z,14.60
2022-10-04T21:30:16.990Z,12.70
2022-10-04T21:32:45.139Z,16.00
2022-10-04T21:35:13.626Z,17.60
2022-10-04T21:37:41.532Z,14.80
2022-10-04T21:40:09.975Z,16.90
2022-10-04T21:42:37.915Z,14.00
2022-10-04T21:45:06.342Z,17.20
2022-10-04T21:47:34.143Z,15.70
2022-10-04T21:50:02.025Z,13.50
2022-10-04T21:52:30.011Z,13.80
2022-10-04T21:54:57.983Z,10.90
2022-10-04T21:57:25.875Z,12.80
2022-10-04T21:59:53.813Z,13.20
2022-10-04T22:02:21.694Z,14.10
2022-10-04T22:04:50.058Z,12.40
2022-10-04T22:07:18.028Z,13.70
2022-10-04T22:09:46.001Z,12.20
2022-10-04T22:12:13.826Z,11.80
2022-10-04T22:14:41.726Z,10.30
2022-10-04T22:17:09.592Z,12.80
2022-10-04T22:19:37.574Z,12.10
2022-10-04T22:22:05.530Z,10.10
2022-10-04T22:24:36.160Z,9.10
2022-10-04T22:27:13.244Z,9.10
2022-10-04T22:29:42.607Z,10.40
2022-10-04T22:32:23.309Z,12.50
2022-10-04T22:34:52.697Z,13.70
2022-10-04T22:37:24.761Z,13.90
2022-10-04T22:39:52.980Z,17.60
2022-10-04T22:42:24.975Z,14.80
2022-10-04T22:44:52.884Z,10.50
2022-10-04T22:47:20.959Z,14.80
2022-10-04T22:49:52.597Z,11.10
2022-10-04T22:52:23.269Z,10.30
2022-10-04T22:54:53.667Z,11.20
2022-10-04T22:57:21.642Z,16.40
2022-10-04T22:59:51.924Z,13.80
2022-10-04T23:02:30.238Z,10.70
2022-10-04T23:05:11.486Z,12.50
2022-10-04T23:07:39.619Z,12.30
2022-10-04T23:10:08.515Z,16.00
2022-10-04T23:12:37.520Z,12.10
2022-10-04T23:15:06.887Z,12.80
2022-10-04T23:17:38.913Z,13.30
2022-10-04T23:20:20.588Z,11.20
2022-10-04T23:22:51.026Z,11.30
2022-10-04T23:25:23.584Z,12.70
2022-10-04T23:27:51.540Z,8.40
2022-10-04T23:30:22.097Z,11.90
2022-10-04T23:32:53.570Z,13.80
2022-10-04T23:35:25.239Z,13.10
2022-10-04T23:37:54.838Z,8.60
2022-10-04T23:40:25.714Z,8.00
2022-10-04T23:42:56.503Z,12.90
2022-10-04T23:47:59.159Z,6.50
2022-10-04T23:50:27.009Z,6.40
2022-10-04T23:53:02.507Z,9.00
2022-10-04T23:55:42.585Z,10.30
2022-10-04T23:58:15.849Z,8.60
